createdAt,value
2017-09-24T00:02:03.370Z,47.00
2017-09-24T00:04:30.191Z,41.30
2017-09-24T00:06:57.183Z,42.37
2017-09-24T00:09:23.959Z,42.43
2017-09-24T00:11:50.769Z,42.47
2017-09-24T00:14:17.569Z,44.33
2017-09-24T00:16:44.359Z,42.40
2017-09-24T00:19:11.163Z,43.00
2017-09-24T00:21:38.001Z,45.80
2017-09-24T00:24:05.542Z,38.60
2017-09-24T00:26:32.403Z,39.43
2017-09-24T00:28:59.321Z,41.60
2017-09-24T00:31:26.197Z,40.90
2017-09-24T00:33:53.053Z,41.90
2017-09-24T00:36:19.858Z,39.37
2017-09-24T00:38:46.697Z,39.43
2017-09-24T00:41:13.565Z,36.93
2017-09-24T00:43:40.450Z,38.80
2017-09-24T00:46:07.341Z,40.30
2017-09-24T00:48:34.943Z,42.70
2017-09-24T00:51:01.768Z,40.90
2017-09-24T00:53:29.426Z,49.70
2017-09-24T00:55:56.322Z,46.17
2017-09-24T00:58:23.987Z,43.40
2017-09-24T01:00:51.594Z,49.50
2017-09-24T01:03:18.484Z,47.47
2017-09-24T01:05:45.345Z,47.00
2017-09-24T01:08:12.187Z,46.23
2017-09-24T01:10:39.074Z,45.87
2017-09-24T01:13:05.969Z,48.13
2017-09-24T01:15:34.207Z,46.63
2017-09-24T01:18:01.070Z,49.43
2017-09-24T01:20:27.972Z,48.60
2017-09-24T01:22:54.874Z,46.17
2017-09-24T01:25:21.728Z,47.00
2017-09-24T01:27:49.362Z,45.27
2017-09-24T01:30:16.259Z,44.90
2017-09-24T01:32:43.927Z,47.20
2017-09-24T01:35:10.806Z,50.80
2017-09-24T01:37:38.475Z,47.30
2017-09-24T01:40:05.357Z,46.77
2017-09-24T01:42:32.968Z,46.00
2017-09-24T01:44:59.874Z,47.63
2017-09-24T01:47:26.745Z,43.37
2017-09-24T01:49:54.391Z,47.13
2017-09-24T01:52:21.339Z,48.07
2017-09-24T01:54:48.250Z,44.03
2017-09-24T01:57:15.879Z,46.00
2017-09-24T01:59:42.768Z,43.97
2017-09-24T02:02:09.627Z,44.60
2017-09-24T02:04:36.495Z,42.50
2017-09-24T02:07:03.381Z,49.03
2017-09-24T02:09:30.999Z,45.63
2017-09-24T02:11:57.820Z,44.97
2017-09-24T02:14:25.356Z,45.43
2017-09-24T02:16:52.160Z,51.03
2017-09-24T02:19:18.990Z,48.60
2017-09-24T02:21:45.808Z,45.87
2017-09-24T02:24:12.645Z,47.07
2017-09-24T02:26:40.210Z,47.23
2017-09-24T02:29:07.043Z,47.47
2017-09-24T02:31:33.879Z,43.77
2017-09-24T02:34:00.739Z,42.40
2017-09-24T02:36:27.601Z,48.17
2017-09-24T02:38:54.432Z,49.87
2017-09-24T02:41:21.980Z,48.70
2017-09-24T03:02:50.147Z,43.70
2017-09-24T03:05:16.959Z,42.33
2017-09-24T03:07:43.787Z,44.80
2017-09-24T03:10:10.587Z,42.80
2017-09-24T03:12:37.415Z,40.70
2017-09-24T03:15:04.209Z,40.90
2017-09-24T03:17:31.016Z,39.67
2017-09-24T03:19:57.800Z,41.43
2017-09-24T03:22:25.349Z,40.63
2017-09-24T03:24:52.210Z,44.63
2017-09-24T03:27:19.051Z,40.10
2017-09-24T03:29:45.864Z,43.47
2017-09-24T03:32:13.398Z,43.30
2017-09-24T03:34:40.205Z,42.23
2017-09-24T03:37:07.058Z,41.23
2017-09-24T03:39:34.594Z,41.77
2017-09-24T03:42:01.419Z,41.80
2017-09-24T03:44:28.222Z,42.90
2017-09-24T03:46:55.009Z,41.67
2017-09-24T03:49:21.832Z,41.67
2017-09-24T03:51:48.634Z,40.80
2017-09-24T03:54:15.444Z,40.30
2017-09-24T03:56:42.251Z,39.07
2017-09-24T03:59:09.053Z,37.47
2017-09-24T04:01:35.851Z,40.30
2017-09-24T04:04:02.682Z,40.53
2017-09-24T04:06:29.493Z,39.20
2017-09-24T04:08:56.306Z,36.50
2017-09-24T04:11:23.175Z,38.30
2017-09-24T04:13:50.008Z,36.30
2017-09-24T04:16:16.796Z,38.80
2017-09-24T04:18:43.618Z,38.83
2017-09-24T04:21:10.428Z,37.27
2017-09-24T04:23:37.276Z,36.70
2017-09-24T04:26:04.087Z,36.40
2017-09-24T04:28:31.628Z,34.43
2017-09-24T04:30:58.454Z,33.73
2017-09-24T04:33:25.601Z,36.40
2017-09-24T04:35:52.395Z,35.37
2017-09-24T04:38:19.221Z,34.37
2017-09-24T04:40:46.032Z,35.50
2017-09-24T04:43:12.865Z,33.17
2017-09-24T04:45:39.631Z,38.13
2017-09-24T04:48:06.446Z,34.67
2017-09-24T04:50:33.982Z,34.07
2017-09-24T04:53:00.764Z,38.07
2017-09-24T04:55:27.574Z,36.47
2017-09-24T04:57:54.378Z,38.40
2017-09-24T05:00:21.209Z,37.67
2017-09-24T05:02:47.991Z,39.30
2017-09-24T05:05:14.788Z,37.43
2017-09-24T05:07:42.336Z,42.40
2017-09-24T05:10:09.167Z,42.00
2017-09-24T05:12:35.967Z,39.20
2017-09-24T05:15:02.784Z,39.57
2017-09-24T05:17:29.601Z,37.73
2017-09-24T05:19:56.388Z,39.37
2017-09-24T05:22:23.187Z,37.90
2017-09-24T05:24:50.011Z,36.87
2017-09-24T05:27:16.804Z,38.90
2017-09-24T05:29:43.622Z,38.90
2017-09-24T05:32:10.412Z,39.40
2017-09-24T05:34:37.286Z,36.67
2017-09-24T05:37:04.068Z,39.10
2017-09-24T05:39:30.880Z,41.83
2017-09-24T05:41:57.675Z,41.00
2017-09-24T05:44:24.513Z,37.73
2017-09-24T05:46:51.318Z,38.10
2017-09-24T05:49:18.154Z,36.50
2017-09-24T05:51:44.997Z,33.37
2017-09-24T05:54:11.801Z,36.20
2017-09-24T05:56:38.602Z,35.73
2017-09-24T05:59:05.430Z,35.60
2017-09-24T06:01:33.982Z,33.40
2017-09-24T06:04:00.822Z,34.47
2017-09-24T06:06:27.651Z,34.37
2017-09-24T06:08:55.180Z,35.37
2017-09-24T06:11:21.975Z,34.33
2017-09-24T06:13:48.840Z,35.60
2017-09-24T06:16:15.710Z,33.40
2017-09-24T06:18:42.696Z,34.17
2017-09-24T06:21:10.090Z,34.97
2017-09-24T06:23:36.937Z,36.00
2017-09-24T06:26:03.764Z,33.10
2017-09-24T06:28:31.369Z,37.23
2017-09-24T06:30:58.196Z,36.40
2017-09-24T06:33:25.021Z,33.43
2017-09-24T06:35:51.850Z,35.10
2017-09-24T06:38:18.702Z,38.00
2017-09-24T06:40:46.262Z,39.30
2017-09-24T06:43:13.063Z,37.63
2017-09-24T06:45:39.888Z,37.53
2017-09-24T06:48:07.706Z,38.63
2017-09-24T06:50:34.494Z,38.10
2017-09-24T06:53:01.318Z,38.93
2017-09-24T06:55:28.108Z,40.40
2017-09-24T06:57:54.922Z,38.57
2017-09-24T07:00:22.517Z,39.33
2017-09-24T07:02:49.388Z,36.67
2017-09-24T07:05:16.195Z,37.73
2017-09-24T07:07:43.033Z,36.60
2017-09-24T07:10:09.835Z,40.23
2017-09-24T07:12:36.620Z,38.67
2017-09-24T07:15:03.487Z,39.07
2017-09-24T07:17:31.055Z,39.47
2017-09-24T07:20:00.070Z,40.23
2017-09-24T07:22:26.914Z,41.07
2017-09-24T07:24:54.458Z,40.53
2017-09-24T07:27:21.283Z,40.03
2017-09-24T07:29:48.133Z,41.73
2017-09-24T07:32:14.954Z,42.33
2017-09-24T07:34:41.762Z,39.37
2017-09-24T07:37:08.641Z,40.13
2017-09-24T07:39:35.502Z,42.47
2017-09-24T07:42:02.319Z,38.90
2017-09-24T07:44:29.864Z,41.77
2017-09-24T07:46:56.684Z,38.53
2017-09-24T07:49:23.472Z,41.43
2017-09-24T07:51:50.319Z,43.27
2017-09-24T07:54:17.151Z,42.73
2017-09-24T07:56:43.988Z,45.23
2017-09-24T07:59:11.599Z,44.27
2017-09-24T08:01:38.430Z,44.37
2017-09-24T08:04:05.279Z,46.07
2017-09-24T08:06:32.068Z,48.30
2017-09-24T08:08:58.934Z,45.30
2017-09-24T08:11:25.754Z,46.87
2017-09-24T08:13:52.562Z,41.40
2017-09-24T08:16:19.401Z,42.73
2017-09-24T08:18:46.963Z,43.00
2017-09-24T08:21:13.807Z,41.67
2017-09-24T08:23:40.637Z,39.97
2017-09-24T08:26:07.460Z,45.60
2017-09-24T08:28:34.975Z,41.67
2017-09-24T08:31:01.783Z,42.10
2017-09-24T08:33:29.142Z,38.93
2017-09-24T08:35:56.725Z,42.60
2017-09-24T08:38:23.598Z,44.50
2017-09-24T08:40:51.155Z,47.33
2017-09-24T08:43:17.961Z,43.87
2017-09-24T08:45:44.752Z,45.43
2017-09-24T08:48:11.629Z,44.73
2017-09-24T08:50:38.516Z,46.37
2017-09-24T08:53:05.360Z,44.57
2017-09-24T08:55:32.213Z,46.60
2017-09-24T08:57:59.032Z,44.00
2017-09-24T09:00:25.904Z,44.83
2017-09-24T09:02:52.760Z,47.60
2017-09-24T09:05:19.599Z,47.03
2017-09-24T09:07:46.454Z,46.90
2017-09-24T09:10:13.299Z,47.23
2017-09-24T09:12:40.103Z,46.90
2017-09-24T09:15:06.920Z,47.57
2017-09-24T09:17:33.713Z,48.97
2017-09-24T09:20:00.544Z,47.50
2017-09-24T09:22:27.369Z,47.70
2017-09-24T09:24:54.165Z,52.47
2017-09-24T09:27:20.960Z,49.50
2017-09-24T09:29:47.783Z,46.20
2017-09-24T09:32:14.657Z,51.27
2017-09-24T09:35:00.336Z,51.07
2017-09-24T09:37:27.135Z,48.03
2017-09-24T09:39:54.287Z,49.50
2017-09-24T09:42:21.199Z,51.63
2017-09-24T09:44:52.008Z,50.87
2017-09-24T09:47:26.053Z,50.67
2017-09-24T09:49:53.111Z,52.13
2017-09-24T09:52:20.135Z,47.43
2017-09-24T09:54:51.269Z,49.47
2017-09-24T09:57:18.551Z,47.37
2017-09-24T09:59:45.724Z,45.07
2017-09-24T10:02:12.977Z,44.90
2017-09-24T10:04:39.849Z,45.80
2017-09-24T10:07:40.594Z,41.93
2017-09-24T10:10:15.559Z,43.73
2017-09-24T10:12:42.449Z,46.07
2017-09-24T10:15:09.321Z,42.00
2017-09-24T10:17:36.735Z,38.50
2017-09-24T10:20:03.589Z,36.40
2017-09-24T10:22:30.452Z,35.70
2017-09-24T10:24:57.268Z,35.57
2017-09-24T10:27:24.093Z,33.77
2017-09-24T10:30:08.966Z,33.00
2017-09-24T10:32:35.849Z,34.00
2017-09-24T10:35:03.549Z,34.87
2017-09-24T10:37:30.143Z,30.83
2017-09-24T10:39:56.971Z,28.47
2017-09-24T10:42:23.779Z,27.20
2017-09-24T10:44:50.642Z,31.87
2017-09-24T10:47:17.521Z,34.57
2017-09-24T10:49:45.057Z,32.73
2017-09-24T10:52:11.900Z,34.43
2017-09-24T10:54:38.708Z,34.10
2017-09-24T10:57:05.544Z,31.20
2017-09-24T10:59:32.347Z,33.87
2017-09-24T11:01:59.975Z,30.50
2017-09-24T11:04:26.800Z,28.37
2017-09-24T11:06:53.645Z,32.57
2017-09-24T11:09:21.198Z,27.00
2017-09-24T11:11:48.002Z,29.63
2017-09-24T11:14:14.820Z,26.30
2017-09-24T11:16:41.662Z,27.33
2017-09-24T11:19:08.506Z,28.03
2017-09-24T11:21:35.352Z,27.30
2017-09-24T11:24:02.194Z,28.80
2017-09-24T11:26:29.755Z,28.40
2017-09-24T11:28:57.400Z,27.97
2017-09-24T11:31:24.215Z,28.57
2017-09-24T11:33:51.083Z,26.53
2017-09-24T11:36:17.911Z,26.10
2017-09-24T11:38:44.736Z,26.87
2017-09-24T11:41:11.563Z,26.40
2017-09-24T11:43:38.375Z,25.00
2017-09-24T11:46:05.200Z,27.57
2017-09-24T11:48:32.017Z,25.50
2017-09-24T11:50:58.873Z,23.10
2017-09-24T11:53:26.076Z,23.40
2017-09-24T11:55:52.891Z,26.70
2017-09-24T11:58:19.771Z,26.23
2017-09-24T12:00:47.364Z,27.93
2017-09-24T12:03:14.924Z,29.43
2017-09-24T12:05:41.787Z,25.43
2017-09-24T12:08:08.640Z,25.43
2017-09-24T12:10:35.545Z,25.17
2017-09-24T12:13:02.355Z,29.93
2017-09-24T12:15:29.183Z,28.97
2017-09-24T12:17:56.102Z,27.40
2017-09-24T12:20:23.675Z,28.60
2017-09-24T12:22:50.479Z,30.90
2017-09-24T12:25:17.319Z,28.80
2017-09-24T12:27:44.900Z,27.43
2017-09-24T12:30:11.781Z,25.27
2017-09-24T12:32:39.363Z,27.33
2017-09-24T12:35:06.152Z,29.07
2017-09-24T12:37:32.976Z,28.07
2017-09-24T12:39:59.822Z,26.60
2017-09-24T12:42:26.670Z,26.50
2017-09-24T12:44:53.440Z,28.40
2017-09-24T12:47:20.243Z,26.00
2017-09-24T12:49:47.082Z,28.13
2017-09-24T12:52:13.955Z,25.30
2017-09-24T12:54:40.756Z,25.93
2017-09-24T12:57:07.549Z,26.47
2017-09-24T12:59:34.382Z,28.60
2017-09-24T13:02:01.980Z,26.67
2017-09-24T13:04:28.846Z,23.97
2017-09-24T13:06:55.690Z,23.80
2017-09-24T13:09:23.316Z,23.33
2017-09-24T13:11:50.103Z,21.23
2017-09-24T13:14:16.917Z,23.90
2017-09-24T13:16:43.737Z,21.00
2017-09-24T13:19:10.574Z,25.10
2017-09-24T13:21:37.391Z,24.83
2017-09-24T13:24:04.194Z,26.10
2017-09-24T13:26:31.026Z,26.50
2017-09-24T13:28:58.076Z,27.87
2017-09-24T13:31:24.857Z,26.40
2017-09-24T13:33:51.682Z,27.17
2017-09-24T13:36:19.214Z,26.37
2017-09-24T13:38:46.026Z,24.23
2017-09-24T13:41:13.560Z,26.93
2017-09-24T13:43:40.368Z,26.53
2017-09-24T13:46:07.157Z,25.10
2017-09-24T13:48:34.019Z,24.27
2017-09-24T13:51:00.845Z,22.70
2017-09-24T13:53:28.407Z,24.13
2017-09-24T13:55:55.994Z,26.20
2017-09-24T13:58:23.611Z,24.07
2017-09-24T14:00:50.415Z,24.10
2017-09-24T14:03:17.216Z,22.30
2017-09-24T14:05:44.023Z,22.27
2017-09-24T14:08:10.820Z,24.57
2017-09-24T14:10:37.603Z,24.00
2017-09-24T14:13:04.429Z,24.00
2017-09-24T14:15:31.985Z,21.80
2017-09-24T14:17:58.779Z,20.10
2017-09-24T14:20:25.578Z,20.87
2017-09-24T14:22:52.407Z,23.10
2017-09-24T14:25:19.239Z,22.37
2017-09-24T14:27:46.062Z,20.60
2017-09-24T14:30:12.906Z,20.73
2017-09-24T14:32:39.801Z,20.80
2017-09-24T14:35:06.599Z,22.80
2017-09-24T14:37:35.047Z,21.60
2017-09-24T14:40:01.883Z,21.10
2017-09-24T14:42:28.696Z,18.97
2017-09-24T14:44:55.512Z,17.33
2017-09-24T14:47:22.349Z,22.27
2017-09-24T14:49:49.178Z,22.00
2017-09-24T14:52:16.042Z,25.03
2017-09-24T14:54:42.933Z,23.00
2017-09-24T14:57:09.806Z,24.27
2017-09-24T14:59:36.639Z,26.07
2017-09-24T15:02:03.496Z,25.53
2017-09-24T15:04:30.380Z,25.50
2017-09-24T15:06:58.981Z,24.00
2017-09-24T15:09:25.859Z,27.83
2017-09-24T15:11:53.454Z,28.77
2017-09-24T15:14:20.369Z,29.03
2017-09-24T15:16:47.950Z,28.37
2017-09-24T15:19:15.588Z,29.33
2017-09-24T15:21:42.507Z,28.80
2017-09-24T15:24:09.383Z,25.90
2017-09-24T15:26:36.280Z,24.13
2017-09-24T15:29:03.251Z,22.53
2017-09-24T15:31:30.084Z,24.57
2017-09-24T15:33:56.949Z,22.67
2017-09-24T15:36:23.764Z,23.00
2017-09-24T15:38:51.336Z,21.53
2017-09-24T15:41:18.919Z,23.00
2017-09-24T15:43:45.750Z,22.30
2017-09-24T15:46:12.718Z,20.87
2017-09-24T15:48:39.551Z,21.20
2017-09-24T15:51:06.388Z,22.07
2017-09-24T15:53:33.281Z,20.47
2017-09-24T15:56:00.136Z,20.53
2017-09-24T15:58:26.993Z,21.10
2017-09-24T16:00:53.819Z,19.00
2017-09-24T16:03:21.385Z,18.40
2017-09-24T16:05:48.217Z,18.10
2017-09-24T16:08:15.053Z,20.20
2017-09-24T16:10:41.871Z,17.07
2017-09-24T16:13:09.421Z,16.67
2017-09-24T16:15:36.258Z,18.33
2017-09-24T16:18:03.106Z,15.40
2017-09-24T16:20:30.046Z,15.23
2017-09-24T16:22:56.953Z,14.33
2017-09-24T16:25:23.771Z,14.10
2017-09-24T16:27:50.649Z,14.57
2017-09-24T16:30:17.527Z,14.37
2017-09-24T16:32:44.374Z,15.33
2017-09-24T16:35:13.292Z,14.50
2017-09-24T16:37:40.881Z,14.50
2017-09-24T16:40:07.724Z,13.93
2017-09-24T16:42:34.548Z,13.73
2017-09-24T16:45:02.136Z,11.90
2017-09-24T16:47:28.969Z,12.97
2017-09-24T16:49:56.337Z,12.27
2017-09-24T16:52:23.275Z,13.67
2017-09-24T16:54:50.130Z,12.70
2017-09-24T16:57:17.007Z,11.40
2017-09-24T16:59:43.871Z,9.60
2017-09-24T17:02:10.719Z,11.80
2017-09-24T17:04:37.604Z,10.93
2017-09-24T17:07:04.417Z,11.27
2017-09-24T17:09:31.281Z,10.20
2017-09-24T17:11:58.162Z,9.97
2017-09-24T17:14:25.018Z,9.80
2017-09-24T17:16:51.999Z,10.93
2017-09-24T17:19:18.875Z,12.27
2017-09-24T17:21:45.868Z,11.63
2017-09-24T17:24:12.720Z,11.67
2017-09-24T17:26:40.515Z,10.13
2017-09-24T17:29:07.364Z,9.90
2017-09-24T17:31:34.194Z,10.53
2017-09-24T17:34:01.075Z,10.90
2017-09-24T17:36:27.875Z,10.90
2017-09-24T17:38:54.751Z,10.30
2017-09-24T17:41:21.578Z,9.70
2017-09-24T17:43:49.190Z,10.00
2017-09-24T17:46:16.038Z,9.70
2017-09-24T17:48:42.914Z,10.20
2017-09-24T17:51:09.833Z,10.07
2017-09-24T17:53:36.830Z,11.27
2017-09-24T17:56:03.740Z,10.53
2017-09-24T17:58:30.626Z,20.60
2017-09-24T18:00:57.593Z,43.10
2017-09-24T18:03:25.195Z,33.50
2017-09-24T18:05:52.040Z,27.10
2017-09-24T18:08:19.024Z,24.90
2017-09-24T18:10:46.196Z,25.07
2017-09-24T18:13:14.104Z,27.37
2017-09-24T18:15:42.653Z,22.60
2017-09-24T18:18:10.037Z,20.30
2017-09-24T18:20:38.432Z,20.57
2017-09-24T18:23:06.401Z,21.50
2017-09-24T18:25:34.996Z,28.37
2017-09-24T18:28:03.415Z,34.07
2017-09-24T18:30:32.282Z,48.00
2017-09-24T18:33:01.226Z,28.83
2017-09-24T18:35:29.599Z,27.00
2017-09-24T18:37:57.539Z,25.27
2017-09-24T18:40:26.996Z,23.93
2017-09-24T18:42:55.663Z,22.10
2017-09-24T18:45:23.646Z,19.03
2017-09-24T18:47:52.358Z,17.30
2017-09-24T18:50:21.759Z,16.67
2017-09-24T18:52:51.151Z,16.33
2017-09-24T18:55:20.016Z,16.53
2017-09-24T18:57:52.013Z,16.80
2017-09-24T19:00:20.673Z,16.57
2017-09-24T19:02:48.526Z,13.97
2017-09-24T19:05:17.159Z,15.00
2017-09-24T19:07:46.022Z,15.30
2017-09-24T19:10:14.867Z,15.37
2017-09-24T19:15:45.739Z,14.93
2017-09-24T19:18:15.334Z,14.77
2017-09-24T19:20:43.966Z,14.60
2017-09-24T19:23:12.785Z,15.50
2017-09-24T19:25:42.920Z,14.37
2017-09-24T19:28:12.632Z,14.00
2017-09-24T19:30:44.329Z,15.10
2017-09-24T19:33:13.097Z,14.43
2017-09-24T19:35:42.006Z,13.60
2017-09-24T19:38:11.267Z,15.20
2017-09-24T19:40:40.024Z,15.40
2017-09-24T19:43:11.549Z,15.93
2017-09-24T19:45:40.607Z,17.00
2017-09-24T19:48:09.448Z,15.70
2017-09-24T19:50:38.669Z,13.87
2017-09-24T19:53:07.371Z,13.67
2017-09-24T19:55:34.573Z,14.17
2017-09-24T19:58:01.487Z,13.98
2017-09-24T20:00:28.463Z,16.35
2017-09-24T20:02:55.326Z,14.50
2017-09-24T20:05:22.432Z,13.17
2017-09-24T20:07:49.299Z,14.67
2017-09-24T20:10:16.685Z,14.50
2017-09-24T20:12:43.504Z,13.83
2017-09-24T20:15:11.112Z,13.40
2017-09-24T20:17:37.970Z,13.97
2017-09-24T20:20:04.849Z,12.83
2017-09-24T20:22:31.661Z,13.83
2017-09-24T20:24:58.498Z,12.97
2017-09-24T20:27:25.341Z,12.93
2017-09-24T20:29:53.562Z,13.60
2017-09-24T20:32:20.700Z,14.43
2017-09-24T20:34:48.315Z,14.53
2017-09-24T20:37:15.644Z,12.47
2017-09-24T20:39:43.766Z,12.70
2017-09-24T20:42:11.851Z,11.77
2017-09-24T20:44:39.373Z,12.30
2017-09-24T20:47:06.846Z,13.33
2017-09-24T20:49:33.953Z,13.70
2017-09-24T20:52:01.593Z,13.13
2017-09-24T20:54:28.814Z,12.73
2017-09-24T20:56:56.063Z,12.63
2017-09-24T20:59:23.595Z,12.57
2017-09-24T21:01:51.835Z,13.70
2017-09-24T21:04:19.415Z,13.60
2017-09-24T21:06:46.332Z,12.43
2017-09-24T21:09:14.047Z,12.30
2017-09-24T21:11:41.475Z,13.30
2017-09-24T21:14:08.397Z,13.10
2017-09-24T21:16:35.960Z,14.73
2017-09-24T21:19:02.797Z,12.60
2017-09-24T21:21:29.642Z,11.20
2017-09-24T21:23:56.465Z,13.17
2017-09-24T21:26:23.317Z,13.13
2017-09-24T21:28:50.954Z,13.20
2017-09-24T21:31:17.797Z,12.77
2017-09-24T21:33:44.628Z,13.87
2017-09-24T21:36:12.219Z,13.47
2017-09-24T21:38:39.077Z,12.40
2017-09-24T21:41:05.912Z,11.97
2017-09-24T21:43:32.752Z,11.10
2017-09-24T21:45:59.584Z,12.77
2017-09-24T21:48:26.433Z,12.37
2017-09-24T21:50:53.279Z,14.17
2017-09-24T21:53:20.117Z,15.10
2017-09-24T21:55:47.679Z,15.73
2017-09-24T21:58:14.544Z,13.73
2017-09-24T22:00:41.437Z,13.10
2017-09-24T22:03:09.510Z,13.20
2017-09-24T22:05:37.075Z,12.83
2017-09-24T22:08:03.951Z,11.83
2017-09-24T22:10:30.809Z,11.07
2017-09-24T22:12:57.663Z,11.93
2017-09-24T22:15:24.538Z,12.63
2017-09-24T22:17:52.080Z,12.90
2017-09-24T22:20:18.884Z,11.50
2017-09-24T22:22:45.695Z,12.33
2017-09-24T22:25:12.498Z,11.70
2017-09-24T22:27:40.086Z,13.60
2017-09-24T22:30:07.632Z,13.80
2017-09-24T22:32:34.454Z,13.03
2017-09-24T22:35:01.240Z,11.93
2017-09-24T22:37:28.027Z,12.67
2017-09-24T22:39:54.800Z,12.20
2017-09-24T22:42:22.321Z,13.03
2017-09-24T22:44:49.941Z,13.13
2017-09-24T22:47:16.782Z,12.50
2017-09-24T22:49:43.623Z,12.33
2017-09-24T22:52:10.467Z,11.70
2017-09-24T22:54:37.251Z,11.10
2017-09-24T22:57:04.047Z,11.10
2017-09-24T22:59:31.024Z,11.93
2017-09-24T23:01:58.821Z,11.20
2017-09-24T23:04:25.600Z,11.20
2017-09-24T23:06:52.457Z,11.53
2017-09-24T23:09:19.256Z,11.60
2017-09-24T23:11:46.082Z,11.00
2017-09-24T23:14:12.894Z,12.47
2017-09-24T23:16:39.679Z,12.03
2017-09-24T23:19:06.516Z,11.50
2017-09-24T23:21:33.304Z,12.13
2017-09-24T23:24:00.100Z,12.30
2017-09-24T23:26:26.890Z,13.90
2017-09-24T23:28:53.701Z,13.97
2017-09-24T23:31:20.558Z,11.80
2017-09-24T23:33:47.354Z,11.70
2017-09-24T23:36:14.338Z,12.43
2017-09-24T23:38:41.294Z,13.23
2017-09-24T23:41:08.351Z,12.43
2017-09-24T23:43:35.189Z,15.00
2017-09-24T23:46:02.156Z,13.40
2017-09-24T23:48:28.965Z,13.37
2017-09-24T23:50:56.634Z,15.03
2017-09-24T23:53:23.440Z,13.60
2017-09-24T23:55:50.263Z,12.80
2017-09-24T23:58:18.010Z,14.10
